Station: Maningrida Airport  

  Atmospheric Gas Attenuation - ITU Rec 676-11   ----------------- dB/100km -----------------
Date Time Temp RH % AH g/m3 Dew Point Wind Direction Speed kph Gust kph Barometer mB Rainfall Since 9am 24GHz 47GHz 76GHz 122GHz 134GHz 241GHz
08/05 12:10 30.2 55 16.86 20.4 32 41 1010.5 0 36.0 33.9 62.8 166.1 179.6 624.1
08/05 12:00 30.1 54 16.47 19.8 24 39 1010.8 0 35.2 33.3 61.3 162.1 174.6 606.7
08/05 11:50 29.9 56 16.89 20.2 32 37 1010.9 0 36.1 34.0 63.2 167.1 180.7 628.1
08/05 11:40 29.8 56 16.8 20.1 24 32 1010.9 0 35.9 33.9 62.9 166.3 179.7 624.6
08/05 11:30 29.9 56 16.89 20.2 24 39 1011.2 0 36.0 34.1 63.2 167.1 180.8 628.2
08/05 11:20 30.4 55 17.05 20.6 19 24 1011.2 0 36.3 34.1 63.5 167.8 181.8 631.7
08/05 11:10 29.4 56 16.44 19.7 24 28 1011.2 0 35.2 33.5 61.8 163.2 175.8 610.9
08/05 11:00 29.6 56 16.62 19.9 22 39 1011.5 0 35.5 33.7 62.4 164.8 177.8 617.9
08/05 10:50 29.2 57 16.55 19.8 24 28 1011.5 0 35.4 33.8 62.4 164.9 177.8 617.8
08/05 10:40 28.5 57 15.93 19.4 28 33 1011.6 0 34.2 33.0 60.4 159.5 171.0 593.9
08/05 10:30 28.4 57 15.85 19.1 24 39 1011.7 0 34.0 32.9 60.1 158.8 170.1 590.9
08/05 10:20 28.7 59 16.67 19.9 24 28 1011.7 0 35.7 34.2 63.3 167.3 180.6 627.6
08/05 10:10 28 58 15.77 19.2 22 30 1011.8 0 33.9 32.9 60.1 158.8 170.0 590.2
08/05 10:00 27.7 60 16.05 19.2 22 41 1012 0 34.5 33.5 61.5 162.5 174.5 606.0
08/05 09:50 27.2 62 16.13 19.3 19 26 1012 0 34.7 33.9 62.2 164.5 176.7 613.7
08/05 09:40 27 60 15.44 18.8 20 30 1012 0 33.3 32.8 59.5 157.2 167.7 582.2
08/05 09:30 26.7 62 15.69 18.8 19 32 1012.1 0 33.8 33.3 60.8 160.6 171.8 596.5
08/05 09:20 26.7 62 15.69 18.8 15 20 1012 0 33.8 33.3 60.8 160.6 171.8 596.4
08/05 09:10 26.4 62 15.43 18.5 19 24 1011.9 0 33.3 33.0 59.9 158.3 168.8 586.2
08/05 09:00 26.4 62 15.43 18.5 17 24 1012 0 33.3 33.0 59.9 158.3 168.9 586.2
08/05 08:50 26.1 61 14.93 18.2 20 26 1011.8 0 32.3 32.2 58.0 153.3 162.6 564.5
08/05 08:40 25.7 62 14.84 17.9 22 28 1011.8 0 32.1 32.2 58.0 153.1 162.3 563.1
08/05 08:30 25.6 65 15.47 18.5 17 26 1011.9 0 33.4 33.3 60.7 160.4 171.2 594.2
08/05 08:20 25.3 67 15.69 18.7 13 17 1011.7 0 33.9 33.8 61.9 163.5 174.9 607.2
08/05 08:10 25 68 15.65 18.7 20 24 1011.7 0 33.9 33.9 61.9 163.6 175.0 607.6
08/05 08:00 24.4 72 16.02 19 17 26 1011.7 0 34.7 34.8 64.0 169.2 181.7 630.8
08/05 07:50 23.9 75 16.22 19.2 13 19 1011.6 0 35.2 35.3 65.3 172.7 185.8 645.0
08/05 07:40 23.6 75 15.95 18.9 15 17 1011.6 0 34.6 35.0 64.4 170.2 182.6 633.8
08/05 07:30 23.3 77 16.1 19 13 20 1011.6 0 35.0 35.4 65.3 172.6 185.5 643.9
08/05 07:20 23 79 16.24 19.2 13 19 1011.4 0 35.3 35.7 66.2 174.9 188.3 653.5
08/05 07:10 22.6 80 16.07 19 11 13 1011.3 0 35.0 35.6 65.8 173.8 186.8 648.2
08/05 07:00 22.2 81 15.9 18.8 13 20 1011.4 0 34.6 35.5 65.3 172.7 185.3 642.8
08/05 06:50 22.1 81 15.81 18.7 13 19 1011.2 0 34.5 35.3 65.0 171.8 184.2 639.0
08/05 06:40 22.1 81 15.81 18.7 17 19 1011.2 0 34.5 35.3 65.0 171.8 184.2 639.0
08/05 06:30 22.1 82 16.01 18.9 13 20 1011.2 0 34.9 35.7 65.9 174.2 187.1 649.3
08/05 06:20 22.1 82 16.01 18.9 15 15 1011 0 34.9 35.7 65.9 174.2 187.1 649.2
08/05 06:10 22.2 82 16.1 19 17 20 1011 0 35.1 35.8 66.2 175.0 188.2 653.0
08/05 06:00 22.2 82 16.1 19 13 22 1011 0 35.1 35.8 66.2 175.0 188.2 653.0
08/05 05:50 22.1 83 16.2 19.1 15 17 1010.8 0 35.3 36.0 66.8 176.4 189.9 659.0
08/05 05:40 22.1 83 16.2 19.1 15 19 1010.8 0 35.3 36.0 66.8 176.4 189.9 659.0
08/05 05:30 22.2 83 16.29 19.2 13 17 1010.9 0 35.5 36.1 67.1 177.3 191.0 662.8
08/05 05:20 22.3 82 16.19 19.1 9 11 1010.8 0 35.2 35.9 66.5 175.8 189.2 656.7
08/05 05:10 22.5 81 16.18 19.1 9 17 1010.8 0 35.2 35.8 66.3 175.3 188.6 654.5
08/05 05:00 22.7 81 16.36 19.3 13 20 1010.9 0 35.6 36.1 67.0 177.0 190.8 662.1
08/05 04:50 22.8 80 16.25 19.2 13 17 1010.8 0 35.3 35.8 66.4 175.4 188.9 655.5
08/05 04:40 23 79 16.24 19.2 15 17 1010.7 0 35.3 35.7 66.2 174.8 188.2 653.2
08/05 04:30 23 79 16.24 19.2 15 24 1010.9 0 35.3 35.7 66.2 174.9 188.2 653.3
08/05 04:20 23.2 78 16.21 19.1 19 22 1010.7 0 35.2 35.6 65.8 174.0 187.3 650.0
08/05 04:10 22.8 80 16.25 19.2 11 20 1010.6 0 35.3 35.8 66.4 175.4 188.8 655.4
08/05 04:00 22.9 79 16.14 19.1 13 20 1010.8 0 35.1 35.6 65.8 173.9 187.0 649.0
08/05 03:50 23 78 16.03 19 17 20 1010.7 0 34.8 35.3 65.2 172.3 185.1 642.5
08/05 03:40 23.1 77 15.92 18.8 11 15 1010.8 0 34.6 35.1 64.6 170.8 183.3 636.1
08/05 03:30 23.2 77 16.01 18.9 15 24 1011 0 34.8 35.2 65.0 171.7 184.4 639.9
08/05 03:20 23.2 77 16.01 18.9 13 17 1010.9 0 34.8 35.2 65.0 171.7 184.4 639.8
08/05 03:10 23.3 76 15.89 18.8 11 19 1010.9 0 34.5 35.0 64.3 170.0 182.4 632.9
08/05 03:00 23.4 75 15.77 18.7 15 24 1011 0 34.3 34.7 63.7 168.4 180.4 626.1
08/05 02:50 23.6 74 15.74 18.7 19 20 1011 0 34.2 34.6 63.4 167.6 179.5 622.9
08/05 02:40 23.7 74 15.83 18.8 17 19 1010.9 0 34.4 34.7 63.7 168.4 180.5 626.6
08/05 02:30 23.7 74 15.83 18.8 19 26 1011.1 0 34.4 34.7 63.7 168.4 180.6 626.7
08/05 02:20 23.9 73 15.79 18.8 15 17 1011 0 34.3 34.5 63.4 167.5 179.5 623.0
08/05 02:10 23.8 73 15.7 18.7 13 19 1011.2 0 34.1 34.4 63.1 166.7 178.5 619.4
08/05 02:00 24.1 72 15.75 18.7 20 30 1011.4 0 34.2 34.4 63.1 166.7 178.5 619.6
08/05 01:50 24.2 72 15.84 18.8 19 22 1011.3 0 34.3 34.5 63.4 167.5 179.6 623.2
08/05 01:40 24 73 15.88 18.9 17 22 1011.4 0 34.4 34.7 63.7 168.4 180.6 626.9
08/05 01:30 24.1 73 15.97 19 15 22 1011.6 0 34.6 34.8 64.1 169.3 181.7 630.7
08/05 01:20 24.2 73 16.06 19.1 19 24 1011.6 0 34.8 34.9 64.4 170.1 182.8 634.4
08/05 01:10 24.2 73 16.06 19.1 19 26 1011.6 0 34.8 34.9 64.4 170.1 182.8 634.4
08/05 01:00 24.2 73 16.06 19.1 17 28 1011.8 0 34.8 34.9 64.4 170.1 182.8 634.5
08/05 00:50 24.3 73 16.15 19.1 17 22 1011.7 0 35.0 35.0 64.7 171.0 183.8 638.1
08/05 00:40 24.3 73 16.15 19.1 13 17 1011.8 0 35.0 35.0 64.7 171.0 183.8 638.2
08/05 00:30 24.4 72 16.02 19 17 24 1012.1 0 34.7 34.8 64.1 169.3 181.8 631.0
08/05 00:20 24.5 72 16.11 19.1 15 20 1012.1 0 34.9 34.9 64.4 170.1 182.8 634.6
08/05 00:10 24.7 72 16.3 19.3 17 20 1012.1 0 35.3 35.2 65.0 171.9 185.1 642.5
08/05 00:00 24.7 71 16.07 19.1 19 28 1012.3 0 34.8 34.8 64.0 169.2 181.8 631.1
07/05 23:50 24.8 71 16.16 19.2 20 24 1012.3 0 35.0 34.9 64.4 170.1 182.8 634.8
07/05 23:40 24.8 72 16.39 19.4 17 20 1012.4 0 35.4 35.3 65.4 172.8 186.2 646.3
07/05 23:30 25 71 16.34 19.4 17 24 1012.6 0 35.3 35.1 65.0 171.8 185.0 642.3
07/05 23:20 25.1 70 16.2 19.2 17 20 1012.6 0 35.0 34.8 64.3 169.9 182.7 634.4
07/05 23:10 25.1 71 16.44 19.5 17 20 1012.5 0 35.5 35.3 65.3 172.7 186.2 646.4
07/05 23:00 25.4 69 16.24 19.3 15 26 1012.7 0 35.1 34.8 64.2 169.7 182.6 634.0
07/05 22:50 25.5 69 16.34 19.4 17 20 1012.6 0 35.3 34.9 64.6 170.7 183.8 638.1
07/05 22:40 25.7 67 16.04 19.3 15 20 1012.6 0 34.6 34.3 63.1 166.8 179.0 621.6
07/05 22:30 25.7 67 16.04 19.3 13 26 1012.7 0 34.6 34.3 63.1 166.8 179.0 621.6
07/05 22:20 25.9 68 16.46 19.5 13 15 1012.6 0 35.5 35.0 64.8 171.2 184.5 640.7
07/05 22:10 26 67 16.31 19.4 15 17 1012.7 0 35.2 34.7 64.0 169.2 182.2 632.5
07/05 22:00 26 67 16.31 19.4 11 22 1012.8 0 35.2 34.7 64.0 169.2 182.2 632.6
07/05 21:50 26.3 66 16.34 19.4 15 20 1012.6 0 35.2 34.6 63.9 168.9 181.9 631.5
07/05 21:40 26.5 65 16.27 19.4 15 19 1012.6 0 35.0 34.4 63.4 167.7 180.4 626.4
07/05 21:30 26.7 64 16.2 19.3 13 22 1012.7 0 34.9 34.2 63.0 166.5 178.9 621.4
07/05 21:20 26.8 64 16.29 19.4 15 19 1012.6 0 35.1 34.3 63.3 167.2 180.0 625.0
07/05 21:10 27 63 16.21 19.4 15 19 1012.5 0 34.9 34.1 62.8 165.9 178.4 619.4
07/05 21:00 27.1 62 16.05 19.2 13 19 1012.5 0 34.5 33.8 62.0 163.9 175.9 610.9
07/05 20:50 27.2 62 16.13 19.3 17 20 1012.3 0 34.7 33.9 62.3 164.5 176.8 613.9
07/05 20:40 27.3 62 16.22 19.4 13 20 1012.2 0 34.9 34.0 62.6 165.3 177.8 617.4
07/05 20:30 27.5 61 16.14 19.3 11 19 1012.2 0 34.7 33.8 62.1 164.0 176.2 611.9
07/05 20:20 27.6 61 16.23 19.4 13 17 1012.1 0 34.9 33.9 62.4 164.8 177.2 615.4
07/05 20:10 27.7 61 16.32 19.5 9 11 1011.9 0 35.0 34.0 62.6 165.6 178.2 618.9
07/05 20:00 27.7 61 16.32 19.5 13 20 1011.8 0 35.0 34.0 62.6 165.6 178.2 618.9
07/05 19:50 27.6 63 16.76 19.9 11 17 1011.6 0 36.0 34.8 64.6 170.7 184.5 640.9
07/05 19:40 27.5 64 16.93 20.1 9 13 1011.5 0 36.3 35.1 65.4 172.9 187.1 650.1

Last Refresh: 08-May-2026 12:15:35

Bureau of Meteorology